Time;durP1;ratioP1;P1;durP2;ratioP2;P2;SDS_P1;SDS_P2;PMS_P1;PMS_P2;Temp;Humidity;BMP_temperature;BMP_pressure;BME280_temperature;BME280_humidity;BME280_pressure;Samples;Min_cycle;Max_cycle;Signal;HPM_P1;HPM_P2
2023/04/22 00:02:15;;;;;;;;;;;;;;;11.07;79.00;95851.03;5056362;28;19936;-71
2023/04/22 00:04:44;;;;;;;;;;;;;;;11.04;79.20;95852.28;5056622;28;19944;-73
2023/04/22 00:07:11;;;;;;;;;;;;;;;11.02;79.90;95856.97;5054988;28;19943;-71
2023/04/22 00:09:37;;;;;;;;;;;;;;;11.00;79.83;95853.00;5055700;28;19944;-71
2023/04/22 00:12:03;;;;;;;;;;;;;;;10.97;80.29;95859.50;5056175;28;19952;-71
2023/04/22 00:14:29;;;;;;;;;;;;;;;10.94;80.56;95859.97;5056150;28;19940;-71
2023/04/22 00:16:56;;;;;;;;;;;;;;;10.93;80.94;95861.00;5056099;28;20024;-71
2023/04/22 00:19:22;;;;;;;;;;;;;;;10.93;80.36;95851.31;5056135;28;19941;-71
2023/04/22 00:21:48;;;;;;;;;;;;;;;10.91;81.05;95861.22;5056595;28;19947;-71
2023/04/22 00:24:13;;;;;;;;;;;;;;;10.89;81.53;95863.28;5056097;28;20015;-74
2023/04/22 00:26:39;;;;;;;;;;;;;;;10.88;81.54;95860.94;5055421;28;19940;-70
2023/04/22 00:29:05;;;;;;;;;;;;;;;10.85;81.79;95858.75;5055866;28;19940;-72
2023/04/22 00:31:31;;;;;;;;;;;;;;;10.81;82.07;95858.41;5055812;28;19956;-71
2023/04/22 00:33:57;;;;;;;;;;;;;;;10.79;81.87;95855.22;5056624;28;19996;-71
2023/04/22 00:36:22;;;;;;;;;;;;;;;10.77;82.32;95854.66;5056309;28;19956;-71
2023/04/22 00:38:51;;;;;;;;;;;;;;;10.74;81.98;95855.94;5055734;28;19947;-71
2023/04/22 00:41:17;;;;;;;;;;;;;;;10.73;82.30;95856.16;5055655;28;19955;-74
2023/04/22 00:43:43;;;;;;;;;;;;;;;10.71;82.66;95856.41;5056215;28;20379;-73
2023/04/22 00:46:09;;;;;;;;;;;;;;;10.69;82.75;95857.69;5054357;28;19947;-73
2023/04/22 00:48:36;;;;;;;;;;;;;;;10.67;83.26;95849.25;5054921;28;19934;-72
2023/04/22 00:51:02;;;;;;;;;;;;;;;10.65;83.42;95852.09;5054501;28;19944;-74
2023/04/22 00:53:28;;;;;;;;;;;;;;;10.63;83.57;95848.91;5055595;28;19941;-72
2023/04/22 00:55:53;;;;;;;;;;;;;;;10.60;83.48;95853.81;5055405;28;19951;-73
2023/04/22 00:58:20;;;;;;;;;;;;;;;10.57;83.24;95845.38;5055889;28;19943;-73
2023/04/22 01:00:46;;;;;;;;;;;;;;;10.55;83.65;95857.13;5055399;28;19939;-71
2023/04/22 01:03:11;;;;;;;;;;;;;;;10.54;83.90;95850.28;5055294;28;19940;-71
2023/04/22 01:05:38;;;;;;;;;;;;;;;10.52;84.26;95863.66;5055779;28;19995;-71
2023/04/22 01:08:03;;;;;;;;;;;;;;;10.49;84.50;95848.34;5055199;28;20317;-71
2023/04/22 01:10:29;;;;;;;;;;;;;;;10.47;84.95;95850.41;5053911;28;19947;-71
2023/04/22 01:12:55;;;;;;;;;;;;;;;10.44;85.43;95843.03;5055925;28;19961;-70
2023/04/22 01:15:21;;;;;;;;;;;;;;;10.42;85.08;95846.91;5053716;28;19976;-71
2023/04/22 01:17:47;;;;;;;;;;;;;;;10.39;85.15;95847.38;5055929;28;19991;-78
2023/04/22 01:20:13;;;;;;;;;;;;;;;10.38;85.05;95845.78;5054969;28;20428;-73
2023/04/22 01:22:43;;;;;;;;;;;;;;;10.35;84.91;95842.59;5055429;28;20291;-73
2023/04/22 01:25:10;;;;;;;;;;;;;;;10.33;85.35;95846.44;5055020;28;19929;-73
2023/04/22 01:27:36;;;;;;;;;;;;;;;10.32;85.55;95845.66;5054860;28;20310;-73
2023/04/22 01:30:03;;;;;;;;;;;;;;;10.29;85.87;95848.75;5054687;28;19931;-75
2023/04/22 01:32:29;;;;;;;;;;;;;;;10.27;85.66;95853.41;5054631;28;19954;-73
2023/04/22 01:34:55;;;;;;;;;;;;;;;10.26;86.36;95851.78;5055497;28;19938;-73
2023/04/22 01:37:21;;;;;;;;;;;;;;;10.23;86.13;95847.03;5055064;28;20039;-71
2023/04/22 01:39:47;;;;;;;;;;;;;;;10.21;86.22;95851.69;5055422;28;19966;-74
2023/04/22 01:42:14;;;;;;;;;;;;;;;10.20;85.62;95855.31;5054470;28;19942;-74
2023/04/22 01:44:39;;;;;;;;;;;;;;;10.19;86.01;95851.13;5055303;28;19936;-73
2023/04/22 01:47:05;;;;;;;;;;;;;;;10.16;86.07;95844.53;5053222;28;20327;-74
2023/04/22 01:49:31;;;;;;;;;;;;;;;10.15;86.39;95850.00;5053906;28;19943;-74
2023/04/22 01:51:57;;;;;;;;;;;;;;;10.13;86.70;95854.66;5054788;28;19961;-74
2023/04/22 01:54:23;;;;;;;;;;;;;;;10.10;86.38;95861.16;5054354;28;19937;-73
2023/04/22 01:56:49;;;;;;;;;;;;;;;10.08;86.63;95852.75;5055083;28;20290;-74
2023/04/22 01:59:15;;;;;;;;;;;;;;;10.07;86.57;95860.81;5054714;28;19933;-74
2023/04/22 02:01:41;;;;;;;;;;;;;;;10.05;86.35;95852.38;5054205;28;19947;-73
2023/04/22 02:04:07;;;;;;;;;;;;;;;10.04;87.09;95850.81;5053339;28;19950;-74
2023/04/22 02:06:33;;;;;;;;;;;;;;;10.01;87.17;95854.66;5052840;28;19951;-74
2023/04/22 02:08:59;;;;;;;;;;;;;;;9.99;87.67;95863.78;5054128;28;19943;-74
2023/04/22 02:11:24;;;;;;;;;;;;;;;9.95;87.66;95859.00;5054690;28;19941;-74
2023/04/22 02:13:50;;;;;;;;;;;;;;;9.93;87.65;95855.81;5054542;28;19936;-70
2023/04/22 02:16:16;;;;;;;;;;;;;;;9.91;87.96;95859.66;5053754;28;19963;-72
2023/04/22 02:18:42;;;;;;;;;;;;;;;9.89;88.35;95856.47;5053837;28;19943;-73
2023/04/22 02:21:08;;;;;;;;;;;;;;;9.86;88.12;95849.88;5054637;28;19969;-72
2023/04/22 02:23:35;;;;;;;;;;;;;;;9.87;88.27;95848.06;5053857;28;20390;-73
2023/04/22 02:26:02;;;;;;;;;;;;;;;9.86;88.37;95856.94;5053744;28;19941;-73
2023/04/22 02:28:28;;;;;;;;;;;;;;;9.84;88.13;95853.75;5053709;28;20421;-72
2023/04/22 02:30:54;;;;;;;;;;;;;;;9.82;87.54;95861.84;5053742;28;19935;-73
2023/04/22 02:33:20;;;;;;;;;;;;;;;9.82;87.98;95861.84;5036599;28;19963;-72
2023/04/22 02:35:45;;;;;;;;;;;;;;;9.79;87.73;95862.31;5054398;28;20439;-71
2023/04/22 02:38:11;;;;;;;;;;;;;;;9.77;87.89;95864.34;5053634;28;19938;-71
2023/04/22 02:40:37;;;;;;;;;;;;;;;9.75;88.36;95858.53;5054552;28;19941;-71
2023/04/22 02:43:03;;;;;;;;;;;;;;;9.72;88.02;95862.41;5053585;28;19941;-71
2023/04/22 02:45:29;;;;;;;;;;;;;;;9.71;88.05;95854.78;5053597;28;19965;-71
2023/04/22 02:47:55;;;;;;;;;;;;;;;9.67;87.85;95858.88;5054386;28;20378;-71
2023/04/22 02:50:20;;;;;;;;;;;;;;;9.65;87.56;95855.69;5054119;28;19941;-74
2023/04/22 02:52:46;;;;;;;;;;;;;;;9.63;87.59;95849.88;5053486;28;19959;-74
2023/04/22 02:55:12;;;;;;;;;;;;;;;9.61;87.48;95857.16;5053119;28;19944;-74
2023/04/22 02:57:38;;;;;;;;;;;;;;;9.58;87.46;95847.16;5053723;28;19940;-74
2023/04/22 03:00:04;;;;;;;;;;;;;;;9.55;87.38;95845.75;5052292;28;20396;-74
2023/04/22 03:02:30;;;;;;;;;;;;;;;9.52;87.68;95846.22;5053958;28;20399;-74
2023/04/22 03:04:56;;;;;;;;;;;;;;;9.49;87.46;95844.03;5053438;28;19943;-74
2023/04/22 03:07:22;;;;;;;;;;;;;;;9.46;87.49;95840.06;5052654;28;19948;-74
2023/04/22 03:09:47;;;;;;;;;;;;;;;9.46;88.23;95862.81;5054272;28;19946;-79
2023/04/22 03:12:13;;;;;;;;;;;;;;;9.43;88.37;95861.47;5053781;28;19963;-71
2023/04/22 03:14:39;;;;;;;;;;;;;;;9.44;88.70;95862.25;5053384;28;19939;-71
2023/04/22 03:17:05;;;;;;;;;;;;;;;9.43;88.31;95864.06;5055629;28;20025;-71
2023/04/22 03:19:31;;;;;;;;;;;;;;;9.43;88.13;95861.47;5057242;28;19946;-71
2023/04/22 03:21:58;;;;;;;;;;;;;;;9.42;88.53;95869.53;5057877;28;19945;-71
2023/04/22 03:24:23;;;;;;;;;;;;;;;9.40;88.51;95867.13;5057409;28;19958;-71
2023/04/22 03:26:49;;;;;;;;;;;;;;;9.38;88.44;95865.75;5056751;28;20382;-78
2023/04/22 03:29:15;;;;;;;;;;;;;;;9.35;88.46;95869.63;5057073;28;19938;-74
2023/04/22 03:31:41;;;;;;;;;;;;;;;9.34;88.63;95876.69;5056097;28;19965;-70
2023/04/22 03:34:07;;;;;;;;;;;;;;;9.31;88.99;95877.13;5056963;28;19948;-71
2023/04/22 03:36:33;;;;;;;;;;;;;;;9.30;88.88;95877.34;5055653;28;20042;-71
2023/04/22 03:38:59;;;;;;;;;;;;;;;9.28;88.78;95876.75;5056472;28;19944;-71
2023/04/22 03:41:28;;;;;;;;;;;;;;;9.26;88.72;95870.94;5056891;28;19944;-71
2023/04/22 03:43:53;;;;;;;;;;;;;;;9.24;89.70;95878.22;5056180;28;19949;-71
2023/04/22 03:46:19;;;;;;;;;;;;;;;9.22;89.27;95880.25;5056723;28;19944;-71
2023/04/22 03:48:45;;;;;;;;;;;;;;;9.20;89.18;95874.47;5056730;28;19987;-78
2023/04/22 03:51:11;;;;;;;;;;;;;;;9.17;89.11;95875.72;5055517;28;19936;-79
2023/04/22 03:53:37;;;;;;;;;;;;;;;9.16;89.68;95875.94;5057344;28;19960;-78
2023/04/22 03:56:03;;;;;;;;;;;;;;;9.12;89.48;95865.91;5055842;28;19939;-78
2023/04/22 03:58:29;;;;;;;;;;;;;;;9.10;89.76;95867.97;5056594;28;19951;-78
2023/04/22 04:00:54;;;;;;;;;;;;;;;9.08;90.17;95869.19;5057260;28;20325;-78
2023/04/22 04:03:20;;;;;;;;;;;;;;;9.06;89.90;95866.81;5056460;28;20403;-71
2023/04/22 04:05:46;;;;;;;;;;;;;;;9.02;90.08;95873.50;5055826;28;20414;-72
2023/04/22 04:08:12;;;;;;;;;;;;;;;9.01;90.06;95871.91;5055018;28;19951;-71
2023/04/22 04:10:38;;;;;;;;;;;;;;;9.00;90.21;95880.75;5057162;28;20435;-71
2023/04/22 04:13:04;;;;;;;;;;;;;;;8.98;89.95;95874.97;5056201;28;20301;-72
2023/04/22 04:15:31;;;;;;;;;;;;;;;8.98;89.95;95876.78;5056598;28;19973;-71
2023/04/22 04:18:00;;;;;;;;;;;;;;;8.98;90.77;95871.56;5056500;28;19944;-71
2023/04/22 04:20:25;;;;;;;;;;;;;;;8.96;90.64;95873.59;5056107;28;19947;-71
2023/04/22 04:22:51;;;;;;;;;;;;;;;8.94;90.60;95860.72;5054905;28;20005;-79
2023/04/22 04:25:20;;;;;;;;;;;;;;;8.93;90.68;95875.63;5055614;28;20317;-79
2023/04/22 04:27:46;;;;;;;;;;;;;;;8.90;90.55;95867.41;5055957;28;19943;-79
2023/04/22 04:30:12;;;;;;;;;;;;;;;8.89;90.69;95863.22;5055924;28;19997;-79
2023/04/22 04:32:39;;;;;;;;;;;;;;;8.89;90.90;95874.47;5055811;28;19955;-79
2023/04/22 04:35:05;;;;;;;;;;;;;;;8.90;91.73;95867.41;5054614;28;19948;-81
2023/04/22 04:37:31;;;;;;;;;;;;;;;8.92;92.06;95868.00;5037935;28;19970;-79
2023/04/22 04:40:00;;;;;;;;;;;;;;;8.92;92.67;95874.03;5054653;28;19966;-76
2023/04/22 04:42:26;;;;;;;;;;;;;;;8.96;92.90;95881.44;5055720;28;19961;-72
2023/04/22 04:44:52;;;;;;;;;;;;;;;8.96;93.24;95879.59;5054473;28;20384;-73
2023/04/22 04:47:18;;;;;;;;;;;;;;;8.96;93.23;95871.75;5055513;28;19952;-73
2023/04/22 04:49:45;;;;;;;;;;;;;;;8.98;93.91;95868.94;5054312;28;19949;-73
2023/04/22 04:52:11;;;;;;;;;;;;;;;8.97;93.35;95881.22;5055646;28;19958;-73
2023/04/22 04:54:36;;;;;;;;;;;;;;;8.97;94.12;95881.22;5055452;28;19939;-73
2023/04/22 04:57:02;;;;;;;;;;;;;;;8.96;94.39;95873.59;5055393;28;19985;-73
2023/04/22 04:59:28;;;;;;;;;;;;;;;8.96;94.77;95881.44;5055375;28;19986;-70
2023/04/22 05:01:54;;;;;;;;;;;;;;;8.94;94.49;95877.25;5056126;28;20254;-72
2023/04/22 05:04:20;;;;;;;;;;;;;;;8.94;94.15;95877.25;5055774;28;19943;-73
2023/04/22 05:06:46;;;;;;;;;;;;;;;8.94;94.09;95876.41;5055265;28;19939;-73
2023/04/22 05:09:12;;;;;;;;;;;;;;;8.93;94.42;95877.44;5055115;28;19943;-72
2023/04/22 05:11:38;;;;;;;;;;;;;;;8.91;94.01;95875.06;5053895;28;20002;-72
2023/04/22 05:14:04;;;;;;;;;;;;;;;8.91;94.16;95877.66;5054040;28;19990;-72
2023/04/22 05:16:30;;;;;;;;;;;;;;;8.92;94.42;95881.06;5055018;28;19967;-74
2023/04/22 05:18:56;;;;;;;;;;;;;;;8.96;94.53;95891.91;5054413;28;19990;-71
2023/04/22 05:21:22;;;;;;;;;;;;;;;8.98;94.35;95884.63;5055783;28;19941;-73
2023/04/22 05:23:48;;;;;;;;;;;;;;;9.00;94.77;95885.22;5054252;28;20437;-73
2023/04/22 05:26:14;;;;;;;;;;;;;;;9.02;94.54;95891.81;5054778;28;19943;-73
2023/04/22 05:28:40;;;;;;;;;;;;;;;9.05;94.28;95891.38;5055196;28;19960;-73
2023/04/22 05:31:06;;;;;;;;;;;;;;;9.08;94.59;95903.22;5054718;28;20395;-75
2023/04/22 05:33:31;;;;;;;;;;;;;;;9.11;94.52;95898.34;5054634;28;19955;-73
2023/04/22 05:35:57;;;;;;;;;;;;;;;9.08;95.41;95895.34;5054115;28;20005;-78
2023/04/22 05:38:23;;;;;;;;;;;;;;;9.06;95.57;95889.56;5054073;28;19947;-73
2023/04/22 05:40:49;;;;;;;;;;;;;;;9.08;95.38;95887.50;5054911;28;19940;-73
2023/04/22 05:43:15;;;;;;;;;;;;;;;9.13;95.12;95891.06;5055001;28;19945;-73
2023/04/22 05:45:41;;;;;;;;;;;;;;;9.21;94.57;95897.00;5054404;28;19937;-73
2023/04/22 05:48:07;;;;;;;;;;;;;;;9.30;95.11;95899.09;5053233;28;20302;-73
2023/04/22 05:50:33;;;;;;;;;;;;;;;9.40;93.13;95888.06;5054843;28;20391;-73
2023/04/22 05:52:59;;;;;;;;;;;;;;;9.52;93.26;95896.75;5054856;28;19966;-73
2023/04/22 05:55:25;;;;;;;;;;;;;;;9.65;93.49;95892.34;5054334;28;19982;-70
2023/04/22 05:57:51;;;;;;;;;;;;;;;9.95;92.57;95885.19;5054285;28;19943;-70
2023/04/22 06:00:17;;;;;;;;;;;;;;;10.12;91.13;95882.69;5054219;28;20006;-70
2023/04/22 06:02:43;;;;;;;;;;;;;;;10.18;90.12;95888.03;5054250;28;19935;-70
2023/04/22 06:05:09;;;;;;;;;;;;;;;10.14;89.82;95879.81;5054581;28;20008;-70
2023/04/22 06:07:35;;;;;;;;;;;;;;;10.12;90.63;95879.25;5054140;28;19941;-70
2023/04/22 06:10:00;;;;;;;;;;;;;;;10.16;90.86;95883.84;5054311;28;19947;-70
2023/04/22 06:12:26;;;;;;;;;;;;;;;10.36;90.03;95878.25;5054495;28;20012;-72
2023/04/22 06:14:52;;;;;;;;;;;;;;;10.43;88.99;95870.25;5036046;28;19942;-79
2023/04/22 06:17:18;;;;;;;;;;;;;;;10.42;88.25;95868.69;5053551;28;19948;-71
2023/04/22 06:19:44;;;;;;;;;;;;;;;10.49;88.21;95876.41;5053969;28;19959;-70
2023/04/22 06:22:10;;;;;;;;;;;;;;;10.57;88.20;95868.97;5053860;28;20390;-70
2023/04/22 06:24:36;;;;;;;;;;;;;;;10.64;87.83;95870.69;5053869;28;20025;-71
2023/04/22 06:27:02;;;;;;;;;;;;;;;10.69;88.64;95882.06;5053821;28;19941;-71
2023/04/22 06:29:28;;;;;;;;;;;;;;;10.68;88.07;95890.16;5053766;28;20411;-71
2023/04/22 06:31:54;;;;;;;;;;;;;;;10.66;88.64;95884.34;5053824;28;19941;-70
2023/04/22 06:34:20;;;;;;;;;;;;;;;10.55;88.52;95873.66;5054242;28;19955;-71
2023/04/22 06:36:45;;;;;;;;;;;;;;;10.46;88.97;95884.75;5052492;28;20315;-71
2023/04/22 06:39:11;;;;;;;;;;;;;;;10.44;89.14;95879.72;5054053;28;19952;-70
2023/04/22 06:41:37;;;;;;;;;;;;;;;10.42;89.17;95884.41;5053714;28;19938;-71
2023/04/22 06:44:03;;;;;;;;;;;;;;;10.42;89.30;95886.22;5053126;28;19951;-72
2023/04/22 06:46:29;;;;;;;;;;;;;;;10.46;90.52;95888.16;5053798;28;19947;-71
2023/04/22 06:48:55;;;;;;;;;;;;;;;10.55;90.05;95885.97;5053552;28;19986;-72
2023/04/22 06:51:20;;;;;;;;;;;;;;;10.66;89.39;95885.13;5053618;28;19986;-73
2023/04/22 06:53:46;;;;;;;;;;;;;;;10.81;89.49;95878.59;5054254;28;19955;-71
2023/04/22 06:56:12;;;;;;;;;;;;;;;10.98;88.36;95868.97;5053440;28;19933;-71
2023/04/22 06:58:38;;;;;;;;;;;;;;;11.14;87.79;95865.59;5053985;28;19986;-71
2023/04/22 07:01:04;;;;;;;;;;;;;;;11.30;87.27;95855.38;5054311;28;19940;-70
2023/04/22 07:03:30;;;;;;;;;;;;;;;11.43;86.55;95854.28;5053416;28;19952;-71
2023/04/22 07:05:55;;;;;;;;;;;;;;;11.54;86.44;95859.44;5053379;28;19989;-71
2023/04/22 07:08:21;;;;;;;;;;;;;;;11.59;84.44;95843.00;5054146;28;19945;-71
2023/04/22 07:10:47;;;;;;;;;;;;;;;11.62;84.12;95839.88;5035517;28;19941;-73
2023/04/22 07:13:13;;;;;;;;;;;;;;;11.62;84.45;95836.47;5052724;28;19968;-73
2023/04/22 07:15:39;;;;;;;;;;;;;;;11.57;84.52;95845.06;5053000;28;20032;-73
2023/04/22 07:18:05;;;;;;;;;;;;;;;11.54;85.89;95856.81;5053493;28;19943;-73
2023/04/22 07:20:31;;;;;;;;;;;;;;;11.56;85.63;95859.22;5053990;28;19940;-72
2023/04/22 07:22:57;;;;;;;;;;;;;;;11.57;85.93;95868.69;5053203;28;19937;-73
2023/04/22 07:25:22;;;;;;;;;;;;;;;11.62;86.17;95875.84;5053349;28;19996;-75
2023/04/22 07:27:48;;;;;;;;;;;;;;;11.63;86.19;95872.19;5053176;28;19949;-73
2023/04/22 07:30:14;;;;;;;;;;;;;;;11.70;86.42;95884.13;5051993;28;19945;-71
2023/04/22 07:32:40;;;;;;;;;;;;;;;11.82;86.87;95872.72;5053063;28;19965;-71
2023/04/22 07:35:06;;;;;;;;;;;;;;;11.85;86.51;95878.31;5053654;28;19986;-71
2023/04/22 07:37:32;;;;;;;;;;;;;;;11.92;87.21;95880.81;5052931;28;19966;-71
2023/04/22 07:39:58;;;;;;;;;;;;;;;11.93;87.12;95877.94;5053462;28;19939;-71
2023/04/22 07:42:24;;;;;;;;;;;;;;;11.95;87.38;95885.59;5052993;28;19942;-72
2023/04/22 07:44:49;;;;;;;;;;;;;;;12.06;86.85;95886.53;5051806;28;20001;-74
2023/04/22 07:47:15;;;;;;;;;;;;;;;12.28;86.13;95884.72;5053791;28;19949;-71
2023/04/22 07:49:42;;;;;;;;;;;;;;;12.56;84.73;95870.66;5051747;28;19942;-71
2023/04/22 07:52:08;;;;;;;;;;;;;;;12.83;83.05;95861.22;5053772;28;20003;-72
2023/04/22 07:54:34;;;;;;;;;;;;;;;13.17;84.03;95870.53;5051679;28;19957;-72
2023/04/22 07:57:00;;;;;;;;;;;;;;;13.53;82.11;95849.81;5053469;28;19983;-72
2023/04/22 07:59:26;;;;;;;;;;;;;;;13.78;80.00;95835.28;5052880;28;19933;-72
2023/04/22 08:01:52;;;;;;;;;;;;;;;14.04;77.33;95814.34;5052857;28;19966;-72
2023/04/22 08:04:21;;;;;;;;;;;;;;;14.33;75.70;95806.84;5056371;28;19932;-79
2023/04/22 08:06:47;;;;;;;;;;;;;;;14.60;76.06;95815.44;5057228;28;19947;-71
2023/04/22 08:09:13;;;;;;;;;;;;;;;14.92;76.45;95821.59;5056320;28;19952;-71
2023/04/22 08:11:39;;;;;;;;;;;;;;;15.08;73.26;95798.66;5056828;28;19939;-71
2023/04/22 08:14:05;;;;;;;;;;;;;;;15.21;74.07;95806.84;5056141;28;20301;-71
2023/04/22 08:16:31;;;;;;;;;;;;;;;15.21;70.63;95793.66;5056099;28;19975;-71
2023/04/22 08:18:57;;;;;;;;;;;;;;;15.27;73.14;95815.59;5056189;28;19998;-72
2023/04/22 08:21:23;;;;;;;;;;;;;;;15.47;68.58;95792.88;5056602;28;20030;-71
2023/04/22 08:23:48;;;;;;;;;;;;;;;15.54;69.52;95796.03;5056034;28;19950;-72
2023/04/22 08:26:15;;;;;;;;;;;;;;;15.66;69.83;95809.75;5055592;28;19944;-71
2023/04/22 08:28:41;;;;;;;;;;;;;;;15.79;69.62;95805.81;5055925;28;20314;-72
2023/04/22 08:31:11;;;;;;;;;;;;;;;15.99;69.81;95803.13;5056730;28;19939;-72
2023/04/22 08:33:39;;;;;;;;;;;;;;;16.20;69.28;95800.44;5055870;28;19955;-72
2023/04/22 08:36:05;;;;;;;;;;;;;;;16.20;68.23;95795.16;5055901;28;19962;-72
2023/04/22 08:38:31;;;;;;;;;;;;;;;16.18;68.10;95797.28;5055960;28;19938;-72
2023/04/22 08:40:57;;;;;;;;;;;;;;;16.28;67.83;95794.59;5056363;28;19942;-77
2023/04/22 08:43:26;;;;;;;;;;;;;;;16.55;68.38;95806.69;5055693;28;19947;-71
2023/04/22 08:45:52;;;;;;;;;;;;;;;16.74;67.01;95809.50;5056150;28;19950;-71
2023/04/22 08:48:18;;;;;;;;;;;;;;;16.68;65.82;95800.81;5054303;28;19991;-71
2023/04/22 08:50:45;;;;;;;;;;;;;;;16.76;65.98;95799.44;5055034;28;19941;-70
2023/04/22 08:53:11;;;;;;;;;;;;;;;17.00;65.50;95807.53;5055374;28;19958;-71
2023/04/22 08:55:38;;;;;;;;;;;;;;;17.23;64.40;95800.78;5055462;28;19937;-71
2023/04/22 08:58:04;;;;;;;;;;;;;;;17.37;62.81;95808.91;5055463;28;19940;-71
2023/04/22 09:00:31;;;;;;;;;;;;;;;17.36;63.25;95808.09;5055398;28;19955;-79
2023/04/22 09:02:59;;;;;;;;;;;;;;;17.13;62.51;95811.44;5055264;28;19942;-73
2023/04/22 09:05:26;;;;;;;;;;;;;;;16.96;63.52;95809.16;5053968;28;19934;-73
2023/04/22 09:07:52;;;;;;;;;;;;;;;16.89;64.50;95811.31;5053946;28;19945;-73
2023/04/22 09:10:18;;;;;;;;;;;;;;;16.88;64.26;95810.50;5055605;28;20283;-73
2023/04/22 09:12:45;;;;;;;;;;;;;;;17.16;65.89;95809.03;5055315;28;19941;-73
2023/04/22 09:15:11;;;;;;;;;;;;;;;17.37;63.59;95795.66;5055133;28;20359;-73
2023/04/22 09:17:37;;;;;;;;;;;;;;;17.62;63.20;95789.34;5055652;28;19948;-72
2023/04/22 09:20:05;;;;;;;;;;;;;;;17.71;62.07;95785.00;5054752;28;19964;-76
2023/04/22 09:22:42;;;;;;;;;;;;;;;17.72;59.86;95785.78;5054866;28;19948;-76
2023/04/22 09:25:15;;;;;;;;;;;;;;;17.85;60.44;95785.19;5054477;28;19959;-75
2023/04/22 09:27:41;;;;;;;;;;;;;;;18.11;60.50;95785.72;5053675;28;19943;-75
2023/04/22 09:30:07;;;;;;;;;;;;;;;18.34;58.80;95781.47;5054993;28;19935;-76
2023/04/22 09:32:33;;;;;;;;;;;;;;;18.56;58.84;95780.97;5054024;28;19941;-76
2023/04/22 09:34:59;;;;;;;;;;;;;;;18.67;55.17;95766.47;5054265;28;19965;-76
2023/04/22 09:37:26;;;;;;;;;;;;;;;18.74;59.12;95797.19;5054458;28;19949;-74
2023/04/22 09:39:52;;;;;;;;;;;;;;;18.76;55.57;95782.53;5054300;28;19944;-72
2023/04/22 09:42:19;;;;;;;;;;;;;;;18.93;56.96;95791.91;5055098;28;19942;-71
2023/04/22 09:44:46;;;;;;;;;;;;;;;19.04;54.26;95772.09;5055024;28;20368;-71
2023/04/22 09:47:12;;;;;;;;;;;;;;;19.06;54.56;95785.88;5054813;28;19946;-72
2023/04/22 09:49:39;;;;;;;;;;;;;;;19.16;56.00;95784.94;5054428;28;19961;-72
2023/04/22 09:52:06;;;;;;;;;;;;;;;19.25;54.55;95785.88;5053904;28;19952;-71
2023/04/22 09:54:32;;;;;;;;;;;;;;;19.38;54.01;95782.50;5053012;28;19954;-72
2023/04/22 09:56:58;;;;;;;;;;;;;;;19.43;52.46;95781.59;5053751;28;19930;-74
2023/04/22 09:59:26;;;;;;;;;;;;;;;19.44;55.33;95789.31;5052958;28;19941;-74
2023/04/22 10:01:54;;;;;;;;;;;;;;;19.53;55.19;95786.78;5054672;28;19931;-74
2023/04/22 10:04:21;;;;;;;;;;;;;;;19.62;51.93;95785.00;5037018;28;20294;-74
2023/04/22 10:06:48;;;;;;;;;;;;;;;19.73;52.68;95785.66;5054879;28;19943;-74
2023/04/22 10:09:16;;;;;;;;;;;;;;;19.90;50.24;95781.66;5054019;28;19950;-74
2023/04/22 10:11:42;;;;;;;;;;;;;;;19.95;53.80;95785.00;5053976;28;19938;-75
2023/04/22 10:14:09;;;;;;;;;;;;;;;19.91;51.16;95784.03;5054500;28;19967;-74
2023/04/22 10:16:37;;;;;;;;;;;;;;;19.97;53.45;95785.50;5052809;28;19971;-74
2023/04/22 10:19:05;;;;;;;;;;;;;;;19.99;51.12;95778.03;5054451;28;20413;-73
2023/04/22 10:21:33;;;;;;;;;;;;;;;19.97;53.45;95776.72;5053514;28;19953;-74
2023/04/22 10:23:59;;;;;;;;;;;;;;;20.12;53.01;95781.78;5054358;28;19949;-74
2023/04/22 10:26:44;;;;;;;;;;;;;;;20.14;50.04;95766.31;5052277;28;19945;-73
2023/04/22 10:29:15;;;;;;;;;;;;;;;20.22;52.34;95768.28;5053327;28;20291;-74
2023/04/22 10:31:43;;;;;;;;;;;;;;;20.26;50.78;95771.13;5054549;28;19943;-73
2023/04/22 10:34:10;;;;;;;;;;;;;;;20.33;49.83;95771.53;5035932;28;19966;-72
2023/04/22 10:36:51;;;;;;;;;;;;;;;20.38;51.39;95770.63;5054457;28;19962;-72
2023/04/22 10:39:17;;;;;;;;;;;;;;;20.41;50.56;95764.69;5053881;28;19936;-72
2023/04/22 10:41:49;;;;;;;;;;;;;;;20.38;49.38;95766.09;5053943;28;20401;-71
2023/04/22 10:44:15;;;;;;;;;;;;;;;20.46;48.90;95762.72;5054198;28;20403;-72
2023/04/22 10:46:50;;;;;;;;;;;;;;;20.62;49.48;95767.75;5053535;28;19950;-71
2023/04/22 10:49:20;;;;;;;;;;;;;;;20.77;48.79;95764.78;5053531;28;20316;-75
2023/04/22 10:51:48;;;;;;;;;;;;;;;20.81;46.98;95767.63;5053478;28;20458;-75
2023/04/22 10:54:35;;;;;;;;;;;;;;;20.90;48.00;95776.50;5053001;28;20311;-75
2023/04/22 10:57:07;;;;;;;;;;;;;;;21.09;47.67;95777.13;5054022;28;20295;-75
2023/04/22 10:59:40;;;;;;;;;;;;;;;21.19;47.43;95772.69;5053906;28;19960;-75
2023/04/22 11:02:06;;;;;;;;;;;;;;;20.97;47.00;95779.53;5054056;28;19946;-75
2023/04/22 11:04:32;;;;;;;;;;;;;;;21.01;49.13;95774.41;5053411;28;19938;-75
2023/04/22 11:07:19;;;;;;;;;;;;;;;21.16;43.18;95774.03;5053349;28;19935;-74
2023/04/22 11:09:46;;;;;;;;;;;;;;;21.46;44.22;95774.44;5053998;28;19942;-79
2023/04/22 11:12:31;;;;;;;;;;;;;;;21.59;45.04;95775.50;5052718;28;20056;-80
2023/04/22 11:14:57;;;;;;;;;;;;;;;21.81;43.09;95770.09;5053617;28;19958;-79
2023/04/22 11:17:23;;;;;;;;;;;;;;;22.04;42.73;95770.06;5052784;28;19949;-79
2023/04/22 11:19:54;;;;;;;;;;;;;;;22.17;39.62;95766.50;5053554;28;19941;-80
2023/04/22 11:22:22;;;;;;;;;;;;;;;22.23;41.55;95765.28;5054141;28;19943;-80
2023/04/22 11:24:55;;;;;;;;;;;;;;;22.23;40.57;95775.19;5053271;28;19936;-75
2023/04/22 11:27:29;;;;;;;;;;;;;;;22.22;40.67;95761.03;5036235;28;20403;-72
2023/04/22 11:30:06;;;;;;;;;;;;;;;22.22;40.45;95760.25;5052882;28;19939;-81
2023/04/22 11:32:33;;;;;;;;;;;;;;;22.24;42.49;95755.41;5053111;28;20408;-79
2023/04/22 11:35:02;;;;;;;;;;;;;;;22.36;41.03;95754.81;5053838;28;19950;-80
2023/04/22 11:37:28;;;;;;;;;;;;;;;22.43;39.84;95761.28;5055537;28;19947;-80
2023/04/22 11:39:58;;;;;;;;;;;;;;;22.40;41.04;95759.22;5056887;28;19961;-80
2023/04/22 11:42:24;;;;;;;;;;;;;;;22.56;41.27;95762.25;5056406;28;19936;-79
2023/04/22 11:44:50;;;;;;;;;;;;;;;22.67;39.54;95744.81;5057314;28;20450;-80
2023/04/22 11:47:18;;;;;;;;;;;;;;;22.78;37.37;95749.84;5057524;28;19947;-75
2023/04/22 11:50:14;;;;;;;;;;;;;;;22.70;35.56;95746.88;5039113;28;19950;-74
2023/04/22 11:52:44;;;;;;;;;;;;;;;22.81;38.28;95750.03;5048049;28;19958;-74
2023/04/22 11:55:14;;;;;;;;;;;;;;;22.94;37.18;95750.97;5056466;28;19961;-74
2023/04/22 11:57:40;;;;;;;;;;;;;;;22.92;34.59;95747.03;5056538;28;19939;-74
2023/04/22 12:00:09;;;;;;;;;;;;;;;22.88;34.34;95749.53;5056592;28;19936;-74
2023/04/22 12:02:35;;;;;;;;;;;;;;;22.94;35.82;95752.84;5057261;28;19947;-75
2023/04/22 12:05:02;;;;;;;;;;;;;;;22.99;34.06;95748.13;5056521;28;19937;-72
2023/04/22 12:07:31;;;;;;;;;;;;;;;23.20;32.78;95750.19;5056302;28;20416;-73
2023/04/22 12:09:57;;;;;;;;;;;;;;;23.33;34.17;95751.13;5057157;28;19966;-72
2023/04/22 12:12:26;;;;;;;;;;;;;;;23.45;34.28;95754.72;5056252;28;20400;-72
2023/04/22 12:14:52;;;;;;;;;;;;;;;23.63;34.38;95750.16;5054689;28;19959;-73
2023/04/22 12:17:24;;;;;;;;;;;;;;;23.39;32.66;95744.50;5056167;28;19935;-73
2023/04/22 12:19:54;;;;;;;;;;;;;;;23.18;32.51;95745.19;5056239;28;19943;-73
2023/04/22 12:22:24;;;;;;;;;;;;;;;23.14;32.78;95738.09;5054790;28;19936;-79
2023/04/22 12:24:50;;;;;;;;;;;;;;;23.18;32.27;95744.38;5056124;28;19932;-73
2023/04/22 12:27:15;;;;;;;;;;;;;;;23.11;33.25;95739.50;5054855;28;19948;-73
2023/04/22 12:29:49;;;;;;;;;;;;;;;22.96;34.81;95747.97;5055811;28;19951;-73
2023/04/22 12:32:15;;;;;;;;;;;;;;;22.74;32.55;95741.69;5056259;28;20309;-72
2023/04/22 12:34:41;;;;;;;;;;;;;;;22.62;35.02;95752.97;5056119;28;20045;-72
2023/04/22 12:37:07;;;;;;;;;;;;;;;22.46;33.77;95749.94;5054621;28;19954;-72
2023/04/22 12:39:33;;;;;;;;;;;;;;;22.37;35.98;95761.72;5056551;28;19946;-72
2023/04/22 12:41:58;;;;;;;;;;;;;;;22.24;35.31;95758.09;5055723;28;19941;-75
2023/04/22 12:44:24;;;;;;;;;;;;;;;22.02;35.24;95759.69;5054975;28;19941;-75
2023/04/22 12:46:50;;;;;;;;;;;;;;;21.87;35.96;95757.41;5055888;28;19984;-76
2023/04/22 12:49:16;;;;;;;;;;;;;;;21.74;35.61;95759.09;5054857;28;19942;-75